OCN41R LFPG-EDDF
Flight info
| Callsign | OCN41R |
|---|---|
| Flight time | 0h 44m |
| Altitude | 30000 |
| Route | RANUX DCT VALEK DCT LIPNI UN858 LIMGO Z111 RAMOB IMCOM1D |
| Aircraft | A333/H-SDE3GHIJ2J3J5M1RVWXY/LB2D1 |
Departure
| Time | 2026-05-08 13:19 |
|---|---|
| Airport | Charles de Gaulle International Airport (LFPG) |
Arrival
| Time | 2026-05-08 14:03 |
|---|---|
| Airport | Frankfurt Main Airport (EDDF) |
| Time | Latitude | Longitude | Altitude | Speed | Heading |
|---|---|---|---|---|---|
| 2026-05-08 12:42 | 49.00164 | 2.56312 | 353 ft | 0 kts | 337° |
| 2026-05-08 13:05 | 49.00163 | 2.56312 | 353 ft | 0 kts | 337° |
| 2026-05-08 13:05 | 49.00156 | 2.56316 | 353 ft | 2 kts | 337° |
| 2026-05-08 13:05 | 49.00143 | 2.56325 | 352 ft | 2 kts | 337° |
| 2026-05-08 13:05 | 49.00131 | 2.56332 | 352 ft | 2 kts | 336° |
| 2026-05-08 13:06 | 49.00119 | 2.56341 | 351 ft | 2 kts | 337° |
| 2026-05-08 13:06 | 49.00105 | 2.56349 | 351 ft | 2 kts | 337° |
| 2026-05-08 13:06 | 49.00093 | 2.56357 | 350 ft | 2 kts | 335° |
| 2026-05-08 13:06 | 49.00085 | 2.56378 | 350 ft | 2 kts | 245° |
| 2026-05-08 13:07 | 49.00093 | 2.56396 | 351 ft | 2 kts | 236° |
| 2026-05-08 13:07 | 49.00100 | 2.56414 | 352 ft | 3 kts | 254° |
| 2026-05-08 13:07 | 49.00102 | 2.56421 | 352 ft | 0 kts | 266° |
| 2026-05-08 13:08 | 49.00101 | 2.56421 | 352 ft | 0 kts | 266° |
| 2026-05-08 13:08 | 49.00101 | 2.56420 | 352 ft | 0 kts | 267° |
| 2026-05-08 13:13 | 49.00098 | 2.56363 | 351 ft | 11 kts | 266° |
| 2026-05-08 13:13 | 49.00090 | 2.56208 | 347 ft | 19 kts | 265° |
| 2026-05-08 13:13 | 49.00079 | 2.56002 | 342 ft | 23 kts | 265° |
| 2026-05-08 13:13 | 49.00072 | 2.55773 | 336 ft | 14 kts | 270° |
| 2026-05-08 13:14 | 49.00061 | 2.55661 | 334 ft | 12 kts | 249° |
| 2026-05-08 13:14 | 49.00013 | 2.55543 | 329 ft | 15 kts | 237° |
| 2026-05-08 13:14 | 48.99979 | 2.55388 | 326 ft | 17 kts | 266° |
| 2026-05-08 13:14 | 48.99971 | 2.55216 | 325 ft | 17 kts | 265° |
| 2026-05-08 13:15 | 48.99963 | 2.55071 | 325 ft | 12 kts | 265° |
| 2026-05-08 13:15 | 48.99956 | 2.54950 | 327 ft | 11 kts | 265° |
| 2026-05-08 13:15 | 48.99942 | 2.54851 | 328 ft | 9 kts | 234° |
| 2026-05-08 13:15 | 48.99882 | 2.54822 | 328 ft | 9 kts | 180° |
| 2026-05-08 13:16 | 48.99818 | 2.54828 | 328 ft | 8 kts | 176° |
| 2026-05-08 13:16 | 48.99766 | 2.54849 | 329 ft | 7 kts | 152° |
| 2026-05-08 13:16 | 48.99736 | 2.54897 | 330 ft | 5 kts | 123° |
| 2026-05-08 13:16 | 48.99717 | 2.54947 | 330 ft | 5 kts | 117° |
| 2026-05-08 13:17 | 48.99703 | 2.54992 | 330 ft | 4 kts | 117° |
| 2026-05-08 13:17 | 48.99690 | 2.55030 | 331 ft | 4 kts | 117° |
| 2026-05-08 13:17 | 48.99657 | 2.55136 | 331 ft | 16 kts | 115° |
| 2026-05-08 13:17 | 48.99598 | 2.55328 | 331 ft | 23 kts | 115° |
| 2026-05-08 13:18 | 48.99587 | 2.55616 | 334 ft | 40 kts | 86° |
| 2026-05-08 13:18 | 48.99630 | 2.56436 | 343 ft | 116 kts | 86° |
| 2026-05-08 13:18 | 48.99708 | 2.58011 | 358 ft | 180 kts | 86° |
| 2026-05-08 13:18 | 48.99812 | 2.60064 | 749 ft | 208 kts | 86° |
| 2026-05-08 13:19 | 48.99927 | 2.62169 | 1327 ft | 204 kts | 87° |
| 2026-05-08 13:19 | 49.00030 | 2.64335 | 2023 ft | 216 kts | 85° |
| 2026-05-08 13:19 | 49.00163 | 2.66715 | 2578 ft | 237 kts | 85° |
| 2026-05-08 13:19 | 49.00310 | 2.69301 | 3141 ft | 257 kts | 85° |
| 2026-05-08 13:20 | 49.00460 | 2.72086 | 3691 ft | 265 kts | 85° |
| 2026-05-08 13:20 | 49.00606 | 2.74856 | 4214 ft | 264 kts | 85° |
| 2026-05-08 13:20 | 49.00758 | 2.77617 | 4776 ft | 262 kts | 85° |
| 2026-05-08 13:20 | 49.00893 | 2.80343 | 5341 ft | 265 kts | 86° |
| 2026-05-08 13:21 | 49.01033 | 2.83205 | 6079 ft | 277 kts | 85° |
| 2026-05-08 13:21 | 49.01197 | 2.86099 | 7083 ft | 277 kts | 85° |
| 2026-05-08 13:21 | 49.01354 | 2.88991 | 8039 ft | 278 kts | 86° |
| 2026-05-08 13:21 | 49.01505 | 2.91917 | 8845 ft | 284 kts | 86° |
| 2026-05-08 13:22 | 49.01718 | 2.94939 | 9653 ft | 290 kts | 81° |
| 2026-05-08 13:22 | 49.02088 | 2.97925 | 10478 ft | 295 kts | 80° |
| 2026-05-08 13:22 | 49.02480 | 3.01069 | 11149 ft | 307 kts | 80° |
| 2026-05-08 13:22 | 49.02871 | 3.04280 | 11755 ft | 320 kts | 81° |
| 2026-05-08 13:23 | 49.03242 | 3.07693 | 12306 ft | 335 kts | 81° |
| 2026-05-08 13:23 | 49.03654 | 3.11255 | 12913 ft | 347 kts | 81° |
| 2026-05-08 13:23 | 49.04070 | 3.14878 | 13661 ft | 354 kts | 81° |
| 2026-05-08 13:23 | 49.04497 | 3.18581 | 14512 ft | 358 kts | 81° |
| 2026-05-08 13:24 | 49.04947 | 3.22281 | 15379 ft | 360 kts | 80° |
| 2026-05-08 13:24 | 49.05412 | 3.26016 | 16278 ft | 361 kts | 80° |
| 2026-05-08 13:24 | 49.05854 | 3.29767 | 17117 ft | 362 kts | 81° |
| 2026-05-08 13:24 | 49.06284 | 3.33548 | 17854 ft | 367 kts | 81° |
| 2026-05-08 13:25 | 49.06694 | 3.37370 | 18500 ft | 373 kts | 82° |
| 2026-05-08 13:25 | 49.07088 | 3.41310 | 19060 ft | 382 kts | 81° |
| 2026-05-08 13:25 | 49.07518 | 3.45328 | 19734 ft | 387 kts | 81° |
| 2026-05-08 13:25 | 49.07995 | 3.49356 | 20447 ft | 390 kts | 79° |
| 2026-05-08 13:26 | 49.08481 | 3.53408 | 21190 ft | 392 kts | 81° |
| 2026-05-08 13:26 | 49.08830 | 3.57488 | 21779 ft | 397 kts | 85° |
| 2026-05-08 13:26 | 49.09098 | 3.61722 | 22381 ft | 402 kts | 85° |
| 2026-05-08 13:26 | 49.09372 | 3.65934 | 22959 ft | 403 kts | 86° |
| 2026-05-08 13:27 | 49.09644 | 3.70156 | 23029 ft | 399 kts | 85° |
| 2026-05-08 13:27 | 49.09918 | 3.74319 | 23031 ft | 397 kts | 85° |
| 2026-05-08 13:27 | 49.10197 | 3.78530 | 23025 ft | 397 kts | 85° |
| 2026-05-08 13:27 | 49.10471 | 3.82695 | 23035 ft | 396 kts | 85° |
| 2026-05-08 13:28 | 49.10746 | 3.86861 | 23036 ft | 396 kts | 85° |
| 2026-05-08 13:28 | 49.11018 | 3.91016 | 23028 ft | 395 kts | 85° |
| 2026-05-08 13:28 | 49.11301 | 3.95222 | 23029 ft | 395 kts | 83° |
| 2026-05-08 13:28 | 49.12040 | 3.99199 | 23028 ft | 398 kts | 70° |
| 2026-05-08 13:29 | 49.13016 | 4.03180 | 23045 ft | 398 kts | 70° |
| 2026-05-08 13:29 | 49.13965 | 4.07136 | 23030 ft | 398 kts | 70° |
| 2026-05-08 13:29 | 49.14904 | 4.11085 | 23031 ft | 398 kts | 71° |
| 2026-05-08 13:29 | 49.15837 | 4.15026 | 23042 ft | 398 kts | 71° |
| 2026-05-08 13:30 | 49.16777 | 4.19010 | 23034 ft | 399 kts | 71° |
| 2026-05-08 13:30 | 49.17718 | 4.23003 | 23031 ft | 399 kts | 71° |
| 2026-05-08 13:30 | 49.18642 | 4.26940 | 23040 ft | 398 kts | 71° |
| 2026-05-08 13:30 | 49.19572 | 4.30901 | 23037 ft | 398 kts | 71° |
| 2026-05-08 13:31 | 49.20507 | 4.34895 | 23027 ft | 398 kts | 71° |
| 2026-05-08 13:31 | 49.21430 | 4.38841 | 23041 ft | 398 kts | 71° |
| 2026-05-08 13:31 | 49.22364 | 4.42846 | 23038 ft | 398 kts | 71° |
| 2026-05-08 13:31 | 49.23282 | 4.46784 | 23026 ft | 398 kts | 71° |
| 2026-05-08 13:32 | 49.24215 | 4.50800 | 23039 ft | 397 kts | 71° |
| 2026-05-08 13:32 | 49.25139 | 4.54782 | 23039 ft | 397 kts | 71° |
| 2026-05-08 13:32 | 49.26053 | 4.58726 | 23024 ft | 397 kts | 71° |
| 2026-05-08 13:32 | 49.26966 | 4.62678 | 23034 ft | 397 kts | 71° |
| 2026-05-08 13:33 | 49.27885 | 4.66661 | 23041 ft | 398 kts | 71° |
| 2026-05-08 13:33 | 49.28802 | 4.70639 | 23024 ft | 398 kts | 71° |
| 2026-05-08 13:33 | 49.29720 | 4.74634 | 23029 ft | 398 kts | 71° |
| 2026-05-08 13:33 | 49.30641 | 4.78646 | 23041 ft | 399 kts | 71° |
| 2026-05-08 13:34 | 49.31559 | 4.82654 | 23031 ft | 399 kts | 72° |
| 2026-05-08 13:34 | 49.32462 | 4.86602 | 23025 ft | 398 kts | 72° |
| 2026-05-08 13:34 | 49.33378 | 4.90622 | 23036 ft | 399 kts | 72° |
| 2026-05-08 13:34 | 49.34285 | 4.94602 | 23039 ft | 399 kts | 72° |
| 2026-05-08 13:35 | 49.35195 | 4.98608 | 23030 ft | 398 kts | 72° |
| 2026-05-08 13:35 | 49.36105 | 5.02618 | 23030 ft | 398 kts | 72° |
| 2026-05-08 13:35 | 49.37007 | 5.06601 | 23043 ft | 398 kts | 72° |
| 2026-05-08 13:35 | 49.37920 | 5.10640 | 23030 ft | 398 kts | 71° |
| 2026-05-08 13:36 | 49.38813 | 5.14598 | 23024 ft | 398 kts | 71° |
| 2026-05-08 13:36 | 49.39716 | 5.18610 | 23035 ft | 398 kts | 71° |
| 2026-05-08 13:36 | 49.40622 | 5.22642 | 23026 ft | 398 kts | 71° |
| 2026-05-08 13:36 | 49.41521 | 5.26646 | 23022 ft | 398 kts | 71° |
| 2026-05-08 13:37 | 49.42416 | 5.30647 | 23035 ft | 398 kts | 71° |
| 2026-05-08 13:37 | 49.43300 | 5.34600 | 23036 ft | 398 kts | 71° |
| 2026-05-08 13:37 | 49.44199 | 5.38629 | 23028 ft | 398 kts | 71° |
| 2026-05-08 13:37 | 49.45100 | 5.42677 | 23029 ft | 398 kts | 72° |
| 2026-05-08 13:38 | 49.45985 | 5.46662 | 23045 ft | 398 kts | 72° |
| 2026-05-08 13:38 | 49.46884 | 5.50716 | 23030 ft | 399 kts | 72° |
| 2026-05-08 13:38 | 49.47774 | 5.54739 | 23033 ft | 398 kts | 72° |
| 2026-05-08 13:38 | 49.48656 | 5.58729 | 23045 ft | 398 kts | 72° |
| 2026-05-08 13:39 | 49.49542 | 5.62749 | 23036 ft | 399 kts | 72° |
| 2026-05-08 13:39 | 49.50429 | 5.66782 | 23030 ft | 399 kts | 72° |
| 2026-05-08 13:39 | 49.51315 | 5.70812 | 23037 ft | 399 kts | 72° |
| 2026-05-08 13:39 | 49.52206 | 5.74879 | 23038 ft | 399 kts | 72° |
| 2026-05-08 13:40 | 49.53087 | 5.78907 | 23030 ft | 399 kts | 72° |
| 2026-05-08 13:40 | 49.53962 | 5.82913 | 23041 ft | 398 kts | 72° |
| 2026-05-08 13:40 | 49.54835 | 5.86920 | 23047 ft | 399 kts | 72° |
| 2026-05-08 13:40 | 49.55714 | 5.90960 | 23044 ft | 398 kts | 72° |
| 2026-05-08 13:41 | 49.56588 | 5.94984 | 23053 ft | 398 kts | 72° |
| 2026-05-08 13:41 | 49.57460 | 5.99015 | 23049 ft | 398 kts | 72° |
| 2026-05-08 13:41 | 49.58342 | 6.03089 | 23047 ft | 398 kts | 72° |
| 2026-05-08 13:41 | 49.59210 | 6.07115 | 23053 ft | 398 kts | 72° |
| 2026-05-08 13:42 | 49.60073 | 6.11119 | 23052 ft | 399 kts | 72° |
| 2026-05-08 13:42 | 49.60954 | 6.15221 | 23057 ft | 399 kts | 72° |
| 2026-05-08 13:42 | 49.61817 | 6.19243 | 23055 ft | 399 kts | 72° |
| 2026-05-08 13:42 | 49.62688 | 6.23315 | 23057 ft | 400 kts | 72° |
| 2026-05-08 13:43 | 49.63550 | 6.27338 | 23055 ft | 399 kts | 72° |
| 2026-05-08 13:43 | 49.64709 | 6.31210 | 23038 ft | 400 kts | 58° |
| 2026-05-08 13:43 | 49.66215 | 6.34819 | 23071 ft | 401 kts | 58° |
| 2026-05-08 13:43 | 49.67682 | 6.38505 | 23056 ft | 400 kts | 59° |
| 2026-05-08 13:44 | 49.69102 | 6.42154 | 23057 ft | 400 kts | 59° |
| 2026-05-08 13:44 | 49.70514 | 6.45814 | 23070 ft | 399 kts | 59° |
| 2026-05-08 13:44 | 49.71935 | 6.49513 | 23058 ft | 399 kts | 59° |
| 2026-05-08 13:44 | 49.73546 | 6.52937 | 23040 ft | 400 kts | 45° |
| 2026-05-08 13:45 | 49.75699 | 6.55691 | 23074 ft | 400 kts | 38° |
| 2026-05-08 13:45 | 49.77580 | 6.58801 | 23042 ft | 400 kts | 56° |
| 2026-05-08 13:45 | 49.78715 | 6.62709 | 23061 ft | 398 kts | 76° |
| 2026-05-08 13:45 | 49.79218 | 6.66880 | 23081 ft | 399 kts | 79° |
| 2026-05-08 13:46 | 49.80002 | 6.70965 | 23055 ft | 400 kts | 72° |
| 2026-05-08 13:46 | 49.80946 | 6.75003 | 23070 ft | 399 kts | 71° |
| 2026-05-08 13:46 | 49.81925 | 6.79039 | 23067 ft | 400 kts | 70° |
| 2026-05-08 13:46 | 49.82904 | 6.83024 | 23064 ft | 399 kts | 70° |
| 2026-05-08 13:47 | 49.83900 | 6.87057 | 22957 ft | 402 kts | 70° |
| 2026-05-08 13:47 | 49.84885 | 6.91052 | 22584 ft | 399 kts | 70° |
| 2026-05-08 13:47 | 49.85873 | 6.95055 | 22320 ft | 397 kts | 70° |
| 2026-05-08 13:47 | 49.86850 | 6.99024 | 21926 ft | 401 kts | 70° |
| 2026-05-08 13:48 | 49.87848 | 7.03084 | 21358 ft | 400 kts | 70° |
| 2026-05-08 13:48 | 49.88823 | 7.07057 | 20865 ft | 395 kts | 70° |
| 2026-05-08 13:48 | 49.89783 | 7.10977 | 20384 ft | 390 kts | 70° |
| 2026-05-08 13:48 | 49.90673 | 7.14921 | 19577 ft | 392 kts | 78° |
| 2026-05-08 13:49 | 49.91083 | 7.19108 | 18390 ft | 403 kts | 84° |
| 2026-05-08 13:49 | 49.91445 | 7.23431 | 17160 ft | 408 kts | 84° |
| 2026-05-08 13:49 | 49.91791 | 7.27681 | 15668 ft | 398 kts | 83° |
| 2026-05-08 13:49 | 49.92128 | 7.31866 | 15031 ft | 385 kts | 83° |
| 2026-05-08 13:50 | 49.92451 | 7.35901 | 14720 ft | 373 kts | 83° |
| 2026-05-08 13:50 | 49.92764 | 7.39837 | 14242 ft | 367 kts | 83° |
| 2026-05-08 13:50 | 49.93070 | 7.43705 | 13787 ft | 361 kts | 83° |
| 2026-05-08 13:50 | 49.93373 | 7.47558 | 13323 ft | 356 kts | 83° |
| 2026-05-08 13:51 | 49.93675 | 7.51309 | 12899 ft | 350 kts | 82° |
| 2026-05-08 13:51 | 49.93678 | 7.54980 | 12813 ft | 333 kts | 101° |
| 2026-05-08 13:51 | 49.93142 | 7.58369 | 12821 ft | 317 kts | 104° |
| 2026-05-08 13:51 | 49.92597 | 7.61604 | 12786 ft | 304 kts | 105° |
| 2026-05-08 13:52 | 49.92057 | 7.64722 | 12556 ft | 299 kts | 105° |
| 2026-05-08 13:52 | 49.91512 | 7.67850 | 12145 ft | 301 kts | 106° |
| 2026-05-08 13:52 | 49.90969 | 7.70947 | 11780 ft | 300 kts | 106° |
| 2026-05-08 13:52 | 49.90431 | 7.73994 | 11201 ft | 293 kts | 106° |
| 2026-05-08 13:53 | 49.89908 | 7.76986 | 10644 ft | 284 kts | 106° |
| 2026-05-08 13:53 | 49.89403 | 7.79921 | 10135 ft | 277 kts | 106° |
| 2026-05-08 13:53 | 49.88907 | 7.82756 | 9306 ft | 275 kts | 105° |
| 2026-05-08 13:53 | 49.88473 | 7.85618 | 8682 ft | 277 kts | 103° |
| 2026-05-08 13:54 | 49.88324 | 7.88525 | 7985 ft | 269 kts | 82° |
| 2026-05-08 13:54 | 49.88900 | 7.91233 | 7160 ft | 266 kts | 62° |
| 2026-05-08 13:54 | 49.89875 | 7.93555 | 6574 ft | 250 kts | 57° |
| 2026-05-08 13:54 | 49.90637 | 7.95880 | 6297 ft | 244 kts | 65° |
| 2026-05-08 13:55 | 49.91293 | 7.98322 | 6099 ft | 250 kts | 70° |
| 2026-05-08 13:55 | 49.91866 | 8.00797 | 5917 ft | 228 kts | 71° |
| 2026-05-08 13:55 | 49.92897 | 8.05171 | 5748 ft | 210 kts | 69° |
| 2026-05-08 13:56 | 49.93410 | 8.07242 | 5648 ft | 200 kts | 68° |
| 2026-05-08 13:56 | 49.93898 | 8.09158 | 5669 ft | 180 kts | 68° |
| 2026-05-08 13:56 | 49.94353 | 8.10946 | 5632 ft | 180 kts | 68° |
| 2026-05-08 13:56 | 49.94799 | 8.12706 | 5426 ft | 171 kts | 68° |
| 2026-05-08 13:57 | 49.95230 | 8.14449 | 5281 ft | 169 kts | 69° |
| 2026-05-08 13:57 | 49.95625 | 8.16135 | 5193 ft | 162 kts | 70° |
| 2026-05-08 13:57 | 49.95999 | 8.17742 | 5007 ft | 156 kts | 70° |
| 2026-05-08 13:57 | 49.96360 | 8.19306 | 4774 ft | 153 kts | 69° |
| 2026-05-08 13:58 | 49.96738 | 8.20853 | 4561 ft | 154 kts | 68° |
| 2026-05-08 13:58 | 49.97127 | 8.22416 | 4368 ft | 156 kts | 68° |
| 2026-05-08 13:58 | 49.97523 | 8.23983 | 4160 ft | 156 kts | 68° |
| 2026-05-08 13:58 | 49.97895 | 8.25556 | 3927 ft | 157 kts | 69° |
| 2026-05-08 13:59 | 49.98271 | 8.27133 | 3698 ft | 158 kts | 69° |
| 2026-05-08 13:59 | 49.98647 | 8.28749 | 3462 ft | 159 kts | 70° |
| 2026-05-08 13:59 | 49.99020 | 8.30369 | 3231 ft | 159 kts | 70° |
| 2026-05-08 13:59 | 49.99410 | 8.31970 | 2998 ft | 159 kts | 68° |
| 2026-05-08 14:00 | 49.99800 | 8.33575 | 2759 ft | 156 kts | 69° |
| 2026-05-08 14:00 | 50.00160 | 8.35111 | 2486 ft | 150 kts | 69° |
| 2026-05-08 14:00 | 50.00525 | 8.36646 | 2257 ft | 153 kts | 68° |
| 2026-05-08 14:00 | 50.00909 | 8.38185 | 2063 ft | 154 kts | 68° |
| 2026-05-08 14:01 | 50.01287 | 8.39719 | 1830 ft | 149 kts | 68° |
| 2026-05-08 14:01 | 50.01647 | 8.41165 | 1569 ft | 139 kts | 67° |
| 2026-05-08 14:01 | 50.01993 | 8.42546 | 1354 ft | 142 kts | 66° |
| 2026-05-08 14:01 | 50.02345 | 8.43968 | 1177 ft | 136 kts | 68° |
| 2026-05-08 14:02 | 50.02661 | 8.45322 | 937 ft | 134 kts | 68° |
| 2026-05-08 14:02 | 50.02979 | 8.46730 | 793 ft | 140 kts | 69° |
| 2026-05-08 14:02 | 50.03314 | 8.48101 | 574 ft | 133 kts | 67° |
| 2026-05-08 14:02 | 50.03644 | 8.49459 | 423 ft | 135 kts | 69° |
| 2026-05-08 14:03 | 50.03970 | 8.50809 | 360 ft | 123 kts | 69° |
| 2026-05-08 14:03 | 50.04163 | 8.51613 | 364 ft | 39 kts | 69° |
| 2026-05-08 14:03 | 50.04230 | 8.51919 | 363 ft | 45 kts | 78° |
| 2026-05-08 14:03 | 50.04215 | 8.52366 | 366 ft | 28 kts | 99° |
| 2026-05-08 14:04 | 50.04199 | 8.52663 | 364 ft | 25 kts | 72° |
| 2026-05-08 14:04 | 50.04259 | 8.52915 | 362 ft | 24 kts | 69° |
| 2026-05-08 14:04 | 50.04319 | 8.53165 | 357 ft | 25 kts | 69° |
| 2026-05-08 14:04 | 50.04377 | 8.53408 | 357 ft | 23 kts | 69° |
| 2026-05-08 14:05 | 50.04405 | 8.53635 | 358 ft | 21 kts | 85° |
| 2026-05-08 14:05 | 50.04418 | 8.53848 | 359 ft | 20 kts | 84° |
| 2026-05-08 14:05 | 50.04431 | 8.54040 | 360 ft | 18 kts | 83° |
| 2026-05-08 14:05 | 50.04445 | 8.54224 | 360 ft | 17 kts | 83° |
| 2026-05-08 14:06 | 50.04455 | 8.54400 | 359 ft | 17 kts | 86° |
| 2026-05-08 14:06 | 50.04436 | 8.54572 | 359 ft | 17 kts | 112° |
| 2026-05-08 14:06 | 50.04356 | 8.54732 | 357 ft | 23 kts | 142° |
| 2026-05-08 14:06 | 50.04181 | 8.54848 | 357 ft | 31 kts | 159° |
| 2026-05-08 14:07 | 50.04016 | 8.54991 | 354 ft | 22 kts | 90° |
| 2026-05-08 14:07 | 50.04060 | 8.55185 | 359 ft | 23 kts | 68° |
| 2026-05-08 14:07 | 50.04111 | 8.55401 | 361 ft | 19 kts | 69° |
| 2026-05-08 14:07 | 50.04076 | 8.55526 | 359 ft | 10 kts | 155° |
| 2026-05-08 14:08 | 50.04052 | 8.55541 | 358 ft | 0 kts | 158° |